createdAt,value
2018-09-02T00:02:27.315Z,102642.23
2018-09-02T00:05:43.488Z,102638.69
2018-09-02T00:08:11.960Z,102636.39
2018-09-02T00:10:40.485Z,102635.81
2018-09-02T00:13:08.997Z,102636.73
2018-09-02T00:15:37.499Z,102630.33
2018-09-02T00:18:05.954Z,102634.11
2018-09-02T00:20:34.559Z,102631.56
2018-09-02T00:23:02.996Z,102628.59
2018-09-02T00:25:31.481Z,102624.08
2018-09-02T00:28:00.025Z,102622.27
2018-09-02T00:30:28.554Z,102615.44
2018-09-02T00:32:57.089Z,102615.76
2018-09-02T00:35:25.583Z,102616.91
2018-09-02T00:37:54.097Z,102609.08
2018-09-02T00:40:22.573Z,102614.02
2018-09-02T00:42:51.055Z,102615.48
2018-09-02T00:45:19.590Z,102612.52
2018-09-02T00:48:15.164Z,102617.05
2018-09-02T00:50:43.643Z,102613.48
2018-09-02T00:53:12.134Z,102611.09
2018-09-02T00:55:40.585Z,102619.55
2018-09-02T00:58:09.083Z,102622.34
2018-09-02T01:00:37.565Z,102615.77
2018-09-02T01:03:06.160Z,102622.77
2018-09-02T01:05:58.289Z,102612.97
2018-09-02T01:08:26.816Z,102610.34
2018-09-02T01:10:55.365Z,102620.13
2018-09-02T01:13:23.889Z,102621.59
2018-09-02T01:15:52.424Z,102627.13
2018-09-02T01:18:20.952Z,102621.36
2018-09-02T01:20:49.500Z,102621.78
2018-09-02T01:23:18.068Z,102623.66
2018-09-02T01:25:46.557Z,102628.26
2018-09-02T01:28:15.075Z,102631.54
2018-09-02T01:30:43.623Z,102631.70
2018-09-02T01:33:12.062Z,102632.03
2018-09-02T01:36:29.508Z,102632.03
2018-09-02T01:38:58.017Z,102629.47
2018-09-02T01:41:26.481Z,102624.36
2018-09-02T01:43:54.930Z,102620.48
2018-09-02T01:46:23.668Z,102617.36
2018-09-02T01:48:53.077Z,102621.72
2018-09-02T01:51:21.544Z,102621.31
2018-09-02T01:53:50.037Z,102619.09
2018-09-02T01:56:25.963Z,102614.65
2018-09-02T01:58:54.997Z,102614.58
2018-09-02T02:01:23.444Z,102608.81
2018-09-02T02:03:55.830Z,102607.50
2018-09-02T02:06:24.533Z,102606.18
2018-09-02T02:08:53.205Z,102607.00
2018-09-02T02:11:21.747Z,102614.42
2018-09-02T02:13:50.272Z,102615.17
2018-09-02T02:16:18.855Z,102614.94
2018-09-02T02:18:47.335Z,102616.52
2018-09-02T02:21:15.821Z,102612.48
2018-09-02T02:23:44.428Z,102608.30
2018-09-02T02:26:13.001Z,102609.87
2018-09-02T02:28:45.284Z,102609.80
2018-09-02T02:31:13.910Z,102601.81
2018-09-02T02:34:45.895Z,102596.05
2018-09-02T02:37:14.434Z,102592.52
2018-09-02T02:39:42.913Z,102588.42
2018-09-02T02:42:16.379Z,102586.61
2018-09-02T02:44:44.961Z,102591.38
2018-09-02T02:47:13.491Z,102585.70
2018-09-02T02:49:42.034Z,102590.40
2018-09-02T02:52:10.572Z,102589.00
2018-09-02T02:54:39.104Z,102586.55
2018-09-02T02:57:07.591Z,102587.23
2018-09-02T02:59:36.061Z,102594.95
2018-09-02T03:02:04.552Z,102583.03
2018-09-02T03:04:33.301Z,102590.68
2018-09-02T03:07:01.818Z,102585.50
2018-09-02T03:09:30.559Z,102579.66
2018-09-02T03:11:59.012Z,102582.95
2018-09-02T03:14:27.468Z,102570.26
2018-09-02T03:16:55.928Z,102574.23
2018-09-02T03:19:24.434Z,102576.86
2018-09-02T03:21:53.184Z,102571.52
2018-09-02T03:24:21.702Z,102574.73
2018-09-02T03:26:50.322Z,102570.95
2018-09-02T03:29:18.930Z,102570.13
2018-09-02T03:31:47.443Z,102570.59
2018-09-02T03:34:16.029Z,102567.47
2018-09-02T03:36:44.546Z,102561.06
2018-09-02T03:39:13.126Z,102562.88
2018-09-02T03:41:41.670Z,102561.23
2018-09-02T03:44:10.155Z,102563.11
2018-09-02T03:46:38.977Z,102561.14
2018-09-02T03:49:07.551Z,102560.31
2018-09-02T03:51:36.021Z,102560.31
2018-09-02T03:54:05.020Z,102552.09
2018-09-02T03:56:33.514Z,102554.40
2018-09-02T03:59:02.118Z,102550.05
2018-09-02T04:01:30.586Z,102554.89
2018-09-02T04:04:02.676Z,102554.81
2018-09-02T04:06:31.214Z,102556.70
2018-09-02T04:09:00.010Z,102553.34
2018-09-02T04:11:28.793Z,102551.28
2018-09-02T04:14:01.017Z,102550.38
2018-09-02T04:16:29.563Z,102552.35
2018-09-02T04:18:58.124Z,102551.70
2018-09-02T04:21:26.729Z,102554.00
2018-09-02T04:23:56.047Z,102550.71
2018-09-02T04:26:24.609Z,102553.50
2018-09-02T04:28:53.058Z,102557.45
2018-09-02T04:31:43.896Z,102550.46
2018-09-02T04:34:12.517Z,102549.31
2018-09-02T04:36:40.951Z,102544.70
2018-09-02T04:39:10.011Z,102547.75
2018-09-02T04:41:39.300Z,102539.70
2018-09-02T04:44:07.843Z,102541.67
2018-09-02T04:46:36.409Z,102534.27
2018-09-02T04:49:04.894Z,102537.56
2018-09-02T04:51:33.371Z,102531.98
2018-09-02T04:54:01.856Z,102534.85
2018-09-02T04:56:30.317Z,102533.20
2018-09-02T04:58:59.009Z,102532.80
2018-09-02T05:01:28.735Z,102534.77
2018-09-02T05:03:57.364Z,102533.78
2018-09-02T05:06:25.889Z,102529.19
2018-09-02T05:08:54.397Z,102528.69
2018-09-02T05:11:23.064Z,102535.34
2018-09-02T05:13:51.502Z,102531.73
2018-09-02T05:16:20.026Z,102534.28
2018-09-02T05:18:48.563Z,102534.85
2018-09-02T05:21:17.104Z,102535.42
2018-09-02T05:23:45.545Z,102530.16
2018-09-02T05:26:13.983Z,102531.39
2018-09-02T05:28:42.553Z,102527.95
2018-09-02T05:31:11.040Z,102529.34
2018-09-02T05:33:39.541Z,102530.98
2018-09-02T05:36:08.092Z,102531.23
2018-09-02T05:38:37.133Z,102527.27
2018-09-02T05:41:05.642Z,102535.41
2018-09-02T05:43:34.177Z,102536.14
2018-09-02T05:46:02.625Z,102534.96
2018-09-02T05:48:31.176Z,102535.42
2018-09-02T05:50:59.646Z,102542.05
2018-09-02T05:53:28.181Z,102541.20
2018-09-02T05:55:56.710Z,102548.23
2018-09-02T05:58:25.265Z,102546.05
2018-09-02T06:00:53.833Z,102550.94
2018-09-02T06:03:22.319Z,102548.48
2018-09-02T06:05:50.958Z,102552.59
2018-09-02T06:08:19.503Z,102548.39
2018-09-02T06:10:48.006Z,102549.07
2018-09-02T06:13:16.622Z,102547.52
2018-09-02T06:15:45.150Z,102552.10
2018-09-02T06:18:13.665Z,102560.57
2018-09-02T06:20:42.201Z,102554.45
2018-09-02T06:23:10.757Z,102555.41
2018-09-02T06:25:39.325Z,102552.82
2018-09-02T06:28:07.848Z,102552.03
2018-09-02T06:30:36.383Z,102558.19
2018-09-02T06:33:05.436Z,102555.94
2018-09-02T06:35:33.948Z,102553.33
2018-09-02T06:38:02.523Z,102550.29
2018-09-02T06:40:31.939Z,102555.56
2018-09-02T06:43:00.735Z,102556.22
2018-09-02T06:45:29.315Z,102559.00
2018-09-02T06:47:57.866Z,102559.36
2018-09-02T06:50:26.381Z,102553.59
2018-09-02T06:52:54.918Z,102554.73
2018-09-02T06:55:23.420Z,102557.61
2018-09-02T06:57:51.990Z,102559.77
2018-09-02T07:00:20.542Z,102567.20
2018-09-02T07:02:49.526Z,102567.49
2018-09-02T07:05:17.985Z,102561.59
2018-09-02T07:07:46.430Z,102560.97
2018-09-02T07:10:14.910Z,102558.65
2018-09-02T07:12:43.427Z,102557.33
2018-09-02T07:15:11.994Z,102556.75
2018-09-02T07:17:40.578Z,102562.09
2018-09-02T07:20:09.165Z,102554.47
2018-09-02T07:22:37.569Z,102554.73
2018-09-02T07:25:06.090Z,102552.34
2018-09-02T07:27:34.653Z,102551.38
2018-09-02T07:30:03.237Z,102550.73
2018-09-02T07:32:31.763Z,102554.86
2018-09-02T07:35:00.259Z,102548.42
2018-09-02T07:37:28.824Z,102554.78
2018-09-02T07:40:01.744Z,102553.09
2018-09-02T07:42:30.302Z,102550.50
2018-09-02T07:44:58.852Z,102543.11
2018-09-02T07:47:27.364Z,102552.97
2018-09-02T07:49:55.864Z,102557.22
2018-09-02T07:52:24.315Z,102555.82
2018-09-02T07:54:52.993Z,102557.12
2018-09-02T07:57:21.492Z,102552.61
2018-09-02T07:59:50.034Z,102550.12
2018-09-02T08:02:18.663Z,102553.00
2018-09-02T08:04:47.168Z,102551.72
2018-09-02T08:07:15.638Z,102546.75
2018-09-02T08:09:44.323Z,102542.24
2018-09-02T08:12:12.887Z,102541.20
2018-09-02T08:14:42.513Z,102548.48
2018-09-02T08:17:10.995Z,102539.34
2018-09-02T08:19:39.564Z,102541.09
2018-09-02T08:22:08.056Z,102540.86
2018-09-02T08:24:36.756Z,102533.22
2018-09-02T08:27:05.629Z,102533.12
2018-09-02T08:29:34.093Z,102531.94
2018-09-02T08:32:02.593Z,102524.97
2018-09-02T08:34:31.065Z,102528.63
2018-09-02T08:36:59.589Z,102530.75
2018-09-02T08:39:28.777Z,102528.89
2018-09-02T08:41:57.296Z,102528.79
2018-09-02T08:44:25.834Z,102521.73
2018-09-02T08:46:54.248Z,102518.77
2018-09-02T08:49:22.802Z,102519.55
2018-09-02T08:51:51.640Z,102518.77
2018-09-02T08:54:20.164Z,102520.31
2018-09-02T08:56:48.649Z,102514.33
2018-09-02T08:59:17.108Z,102511.80
2018-09-02T09:01:45.799Z,102512.66
2018-09-02T09:04:14.164Z,102512.01
2018-09-02T09:06:42.710Z,102514.78
2018-09-02T09:09:11.410Z,102514.52
2018-09-02T09:11:39.844Z,102510.74
2018-09-02T09:14:08.321Z,102496.19
2018-09-02T09:16:36.906Z,102501.66
2018-09-02T09:19:05.321Z,102505.80
2018-09-02T09:21:33.877Z,102503.69
2018-09-02T09:24:02.389Z,102496.64
2018-09-02T09:26:30.934Z,102495.43
2018-09-02T09:28:59.516Z,102487.00
2018-09-02T09:31:27.997Z,102491.67
2018-09-02T09:33:56.419Z,102491.39
2018-09-02T09:36:24.860Z,102483.47
2018-09-02T09:38:53.311Z,102479.98
2018-09-02T09:41:21.830Z,102475.56
2018-09-02T09:43:50.296Z,102468.99
2018-09-02T09:46:18.932Z,102477.98
2018-09-02T09:48:47.488Z,102470.93
2018-09-02T09:51:16.153Z,102471.45
2018-09-02T09:53:45.761Z,102460.84
2018-09-02T09:56:14.342Z,102460.02
2018-09-02T09:58:42.941Z,102452.59
2018-09-02T10:01:11.521Z,102454.91
2018-09-02T10:03:40.154Z,102455.46
2018-09-02T10:06:08.682Z,102455.55
2018-09-02T10:08:37.182Z,102450.72
2018-09-02T10:11:05.650Z,102440.91
2018-09-02T10:13:34.136Z,102444.98
2018-09-02T10:16:03.027Z,102449.08
2018-09-02T10:18:31.510Z,102440.59
2018-09-02T10:20:59.991Z,102439.28
2018-09-02T10:23:28.454Z,102439.31
2018-09-02T10:25:56.873Z,102427.34
2018-09-02T10:28:25.592Z,102425.59
2018-09-02T10:30:54.126Z,102430.98
2018-09-02T10:33:22.729Z,102422.99
2018-09-02T10:35:51.167Z,102421.22
2018-09-02T10:38:19.675Z,102413.63
2018-09-02T10:40:48.151Z,102408.28
2018-09-02T10:43:16.949Z,102414.56
2018-09-02T10:45:45.440Z,102411.45
2018-09-02T10:48:14.122Z,102400.30
2018-09-02T10:50:42.594Z,102408.38
2018-09-02T10:53:11.414Z,102403.09
2018-09-02T10:55:40.533Z,102391.03
2018-09-02T10:58:09.009Z,102392.37
2018-09-02T11:00:37.605Z,102387.02
2018-09-02T11:03:06.156Z,102386.11
2018-09-02T11:05:34.712Z,102386.98
2018-09-02T11:08:03.200Z,102386.51
2018-09-02T11:10:31.660Z,102384.75
2018-09-02T11:13:00.168Z,102377.14
2018-09-02T11:15:28.805Z,102374.88
2018-09-02T11:17:57.297Z,102367.70
2018-09-02T11:20:25.865Z,102365.89
2018-09-02T11:22:54.786Z,102362.28
2018-09-02T11:25:23.357Z,102364.47
2018-09-02T11:27:52.582Z,102358.19
2018-09-02T11:30:21.098Z,102362.20
2018-09-02T11:32:49.654Z,102352.29
2018-09-02T11:35:18.174Z,102351.37
2018-09-02T11:37:46.603Z,102354.00
2018-09-02T11:40:15.164Z,102348.68
2018-09-02T11:42:43.570Z,102346.41
2018-09-02T11:45:12.218Z,102344.63
2018-09-02T11:47:40.735Z,102339.19
2018-09-02T11:50:09.223Z,102343.61
2018-09-02T11:52:37.808Z,102326.06
2018-09-02T11:55:06.402Z,102341.22
2018-09-02T11:57:34.980Z,102343.97
2018-09-02T12:00:03.504Z,102327.22
2018-09-02T12:03:17.061Z,102327.44
2018-09-02T12:05:45.573Z,102330.53
2018-09-02T12:08:14.005Z,102319.78
2018-09-02T12:10:42.522Z,102320.20
2018-09-02T12:13:11.084Z,102319.38
2018-09-02T12:15:39.732Z,102309.50
2018-09-02T12:18:16.237Z,102315.84
2018-09-02T12:20:44.750Z,102312.05
2018-09-02T12:23:13.342Z,102316.79
2018-09-02T12:25:41.836Z,102307.02
2018-09-02T12:28:10.412Z,102302.22
2018-09-02T12:30:39.199Z,102309.28
2018-09-02T12:33:08.183Z,102304.71
2018-09-02T12:35:36.885Z,102292.02
2018-09-02T12:38:05.365Z,102293.22
2018-09-02T12:40:33.923Z,102289.97
2018-09-02T12:43:02.404Z,102291.95
2018-09-02T12:45:30.898Z,102283.25
2018-09-02T12:47:59.484Z,102278.70
2018-09-02T12:50:27.973Z,102272.35
2018-09-02T12:52:56.894Z,102272.89
2018-09-02T12:55:25.170Z,102270.94
2018-09-02T12:57:53.521Z,102270.68
2018-09-02T13:00:22.006Z,102259.97
2018-09-02T13:02:50.574Z,102255.53
2018-09-02T13:05:19.149Z,102253.54
2018-09-02T13:07:47.761Z,102253.12
2018-09-02T13:10:16.327Z,102246.10
2018-09-02T13:12:44.872Z,102238.86
2018-09-02T13:15:13.430Z,102231.08
2018-09-02T13:17:41.969Z,102238.56
2018-09-02T13:20:10.440Z,102230.27
2018-09-02T13:22:38.885Z,102230.45
2018-09-02T13:25:07.463Z,102232.30
2018-09-02T13:27:36.043Z,102223.27
2018-09-02T13:30:05.006Z,102223.70
2018-09-02T13:32:33.472Z,102217.77
2018-09-02T13:35:01.953Z,102213.02
2018-09-02T13:37:30.441Z,102214.16
2018-09-02T13:39:59.005Z,102207.84
2018-09-02T13:42:27.472Z,102208.77
2018-09-02T13:44:55.952Z,102200.55
2018-09-02T13:47:25.780Z,102203.45
2018-09-02T13:49:55.050Z,102204.20
2018-09-02T13:52:23.515Z,102204.44
2018-09-02T13:54:52.368Z,102196.69
2018-09-02T13:57:21.245Z,102199.33
2018-09-02T13:59:49.786Z,102191.07
2018-09-02T14:02:18.315Z,102184.48
2018-09-02T14:04:46.777Z,102185.09
2018-09-02T14:07:15.276Z,102173.75
2018-09-02T14:09:43.902Z,102174.78
2018-09-02T14:12:12.461Z,102173.88
2018-09-02T14:14:40.920Z,102179.52
2018-09-02T14:17:09.500Z,102179.94
2018-09-02T14:19:38.113Z,102172.40
2018-09-02T14:22:07.146Z,102174.55
2018-09-02T14:24:35.735Z,102167.52
2018-09-02T14:27:04.224Z,102166.09
2018-09-02T14:29:32.785Z,102164.63
2018-09-02T14:32:01.330Z,102160.88
2018-09-02T14:34:29.760Z,102152.15
2018-09-02T14:36:58.367Z,102150.94
2018-09-02T14:39:26.856Z,102146.57
2018-09-02T14:41:55.335Z,102149.41
2018-09-02T14:44:23.865Z,102141.63
2018-09-02T14:46:52.413Z,102142.66
2018-09-02T14:49:20.865Z,102138.36
2018-09-02T14:51:49.351Z,102138.22
2018-09-02T14:54:17.946Z,102142.80
2018-09-02T14:56:46.493Z,102140.38
2018-09-02T14:59:14.922Z,102145.61
2018-09-02T15:01:43.502Z,102139.61
2018-09-02T15:04:12.040Z,102132.04
2018-09-02T15:06:40.507Z,102130.32
2018-09-02T15:09:09.896Z,102130.56
2018-09-02T15:11:45.412Z,102132.31
2018-09-02T15:14:13.987Z,102128.95
2018-09-02T15:16:42.563Z,102126.48
2018-09-02T15:19:11.103Z,102122.22
2018-09-02T15:21:39.762Z,102119.83
2018-09-02T15:24:08.351Z,102116.73
2018-09-02T15:26:36.905Z,102111.72
2018-09-02T15:29:05.533Z,102110.28
2018-09-02T15:31:34.252Z,102108.41
2018-09-02T15:34:02.837Z,102104.30
2018-09-02T15:36:31.349Z,102100.50
2018-09-02T15:38:59.872Z,102100.33
2018-09-02T15:41:28.417Z,102096.69
2018-09-02T15:43:56.923Z,102098.43
2018-09-02T15:46:25.735Z,102100.67
2018-09-02T15:48:54.161Z,102100.87
2018-09-02T15:51:22.639Z,102098.43
2018-09-02T15:53:51.432Z,102096.54
2018-09-02T15:56:19.900Z,102098.63
2018-09-02T15:58:48.392Z,102089.12
2018-09-02T16:01:27.012Z,102101.88
2018-09-02T16:03:55.597Z,102089.77
2018-09-02T16:06:24.618Z,102090.34
2018-09-02T16:08:53.065Z,102089.77
2018-09-02T16:11:21.682Z,102090.40
2018-09-02T16:13:50.246Z,102083.11
2018-09-02T16:16:18.862Z,102076.25
2018-09-02T16:18:47.539Z,102080.90
2018-09-02T16:21:15.987Z,102080.96
2018-09-02T16:23:44.694Z,102079.27
2018-09-02T16:26:13.201Z,102074.59
2018-09-02T16:28:41.729Z,102075.67
2018-09-02T16:31:10.243Z,102071.77
2018-09-02T16:33:38.801Z,102073.12
2018-09-02T16:36:07.426Z,102072.69
2018-09-02T16:38:35.860Z,102069.16
2018-09-02T16:41:04.350Z,102078.59
2018-09-02T16:43:32.827Z,102075.11
2018-09-02T16:46:01.679Z,102076.61
2018-09-02T16:48:30.189Z,102069.16
2018-09-02T16:50:58.669Z,102074.14
2018-09-02T16:53:27.219Z,102064.43
2018-09-02T16:55:55.782Z,102060.56
2018-09-02T16:58:24.414Z,102068.69
2018-09-02T17:00:52.912Z,102060.71
2018-09-02T17:03:23.279Z,102062.62
2018-09-02T17:05:51.808Z,102061.37
2018-09-02T17:08:20.394Z,102062.41
2018-09-02T17:10:48.924Z,102056.64
2018-09-02T17:13:17.417Z,102058.09
2018-09-02T17:15:46.065Z,102055.51
2018-09-02T17:18:14.569Z,102054.80
2018-09-02T17:20:45.921Z,102052.36
2018-09-02T17:23:14.704Z,102049.91
2018-09-02T17:25:44.758Z,102050.04
2018-09-02T17:28:13.673Z,102045.70
2018-09-02T17:30:42.182Z,102044.04
2018-09-02T17:33:11.999Z,102048.61
2018-09-02T17:35:40.578Z,102055.45
2018-09-02T17:38:09.102Z,102049.70
2018-09-02T17:40:37.684Z,102047.11
2018-09-02T17:43:06.426Z,102045.38
2018-09-02T17:45:34.984Z,102045.45
2018-09-02T17:48:03.464Z,102045.51
2018-09-02T17:50:32.012Z,102050.94
2018-09-02T17:53:00.560Z,102049.58
2018-09-02T17:55:29.147Z,102045.61
2018-09-02T17:57:57.801Z,102039.84
2018-09-02T18:00:37.771Z,102048.37
2018-09-02T18:03:06.638Z,102045.72
2018-09-02T18:05:35.205Z,102055.56
2018-09-02T18:08:05.683Z,102050.22
2018-09-02T18:10:34.841Z,102048.00
2018-09-02T18:13:03.352Z,102046.63
2018-09-02T18:15:31.825Z,102052.44
2018-09-02T18:18:00.602Z,102054.22
2018-09-02T18:20:29.295Z,102058.23
2018-09-02T18:22:58.329Z,102060.47
2018-09-02T18:25:27.218Z,102062.70
2018-09-02T18:28:00.247Z,102068.94
2018-09-02T18:30:29.041Z,102060.87
2018-09-02T18:32:57.643Z,102065.77
2018-09-02T18:35:26.535Z,102067.55
2018-09-02T18:37:55.253Z,102064.44
2018-09-02T18:40:23.831Z,102067.55
2018-09-02T18:42:52.603Z,102062.64
2018-09-02T18:45:21.229Z,102058.19
2018-09-02T18:51:19.873Z,102064.42
2018-09-02T18:53:48.564Z,102063.08
2018-09-02T18:56:17.874Z,102067.54
2018-09-02T18:58:46.671Z,102063.97
2018-09-02T19:01:15.317Z,102063.07
2018-09-02T19:03:44.211Z,102058.16
2018-09-02T19:06:12.995Z,102060.39
2018-09-02T19:08:41.698Z,102062.17
2018-09-02T19:11:10.587Z,102065.73
2018-09-02T19:13:39.404Z,102062.16
2018-09-02T19:19:56.738Z,102055.91
2018-09-02T19:22:25.847Z,102061.25
2018-09-02T19:24:54.527Z,102063.94
2018-09-02T19:27:23.529Z,102061.70
2018-09-02T19:29:52.555Z,102068.39
2018-09-02T19:32:21.476Z,102067.05
2018-09-02T19:34:50.333Z,102067.05
2018-09-02T19:37:18.914Z,102072.84
2018-09-02T19:39:47.446Z,102069.73
2018-09-02T19:42:15.929Z,102067.94
2018-09-02T19:44:44.427Z,102067.48
2018-09-02T19:47:13.087Z,102063.48
2018-09-02T19:50:14.674Z,102065.70
2018-09-02T19:52:52.184Z,102055.41
2018-09-02T19:55:20.820Z,102060.30
2018-09-02T19:57:49.450Z,102059.41
2018-09-02T20:00:18.141Z,102059.85
2018-09-02T20:02:46.690Z,102054.95
2018-09-02T20:05:15.404Z,102058.05
2018-09-02T20:07:43.939Z,102054.92
2018-09-02T20:10:12.672Z,102060.28
2018-09-02T20:12:41.217Z,102061.62
2018-09-02T20:15:09.764Z,102063.41
2018-09-02T20:17:38.256Z,102058.50
2018-09-02T20:20:06.924Z,102059.84
2018-09-02T20:22:35.424Z,102056.70
2018-09-02T20:25:04.088Z,102060.72
2018-09-02T20:27:32.580Z,102063.83
2018-09-02T20:30:01.291Z,102061.16
2018-09-02T20:32:29.853Z,102062.49
2018-09-02T20:35:24.513Z,102058.48
2018-09-02T20:37:52.998Z,102063.38
2018-09-02T20:40:21.656Z,102059.36
2018-09-02T20:42:50.248Z,102064.26
2018-09-02T20:45:19.141Z,102058.45
2018-09-02T20:47:51.518Z,102063.80
2018-09-02T20:50:19.972Z,102066.47
2018-09-02T20:52:48.416Z,102067.78
2018-09-02T20:55:16.953Z,102068.22
2018-09-02T20:57:45.869Z,102068.66
2018-09-02T21:00:14.379Z,102061.97
2018-09-02T21:02:43.005Z,102065.52
2018-09-02T21:05:11.568Z,102059.72
2018-09-02T21:07:40.116Z,102063.75
2018-09-02T21:10:08.787Z,102057.52
2018-09-02T21:12:37.282Z,102058.41
2018-09-02T21:15:06.580Z,102057.53
2018-09-02T21:17:35.086Z,102050.40
2018-09-02T21:20:03.846Z,102051.28
2018-09-02T21:22:32.349Z,102053.51
2018-09-02T21:25:00.946Z,102057.52
2018-09-02T21:27:29.537Z,102049.05
2018-09-02T21:29:58.100Z,102049.49
2018-09-02T21:32:26.678Z,102046.38
2018-09-02T21:34:55.153Z,102045.91
2018-09-02T21:37:23.682Z,102045.02
2018-09-02T21:39:52.165Z,102045.45
2018-09-02T21:42:20.689Z,102045.89
2018-09-02T21:44:49.207Z,102045.44
2018-09-02T21:47:17.752Z,102039.63
2018-09-02T21:49:46.715Z,102039.19
2018-09-02T21:52:15.218Z,102036.52
2018-09-02T21:54:43.946Z,102033.39
2018-09-02T21:57:12.393Z,102026.70
2018-09-02T21:59:41.031Z,102026.25
2018-09-02T22:02:09.497Z,102023.13
2018-09-02T22:04:38.046Z,102023.56
2018-09-02T22:07:06.528Z,102021.31
2018-09-02T22:09:36.156Z,102024.42
2018-09-02T22:12:04.962Z,102027.53
2018-09-02T22:14:33.589Z,102020.84
2018-09-02T22:17:02.081Z,102017.27
2018-09-02T22:19:30.546Z,102019.03
2018-09-02T22:21:59.013Z,102017.24
2018-09-02T22:24:27.481Z,102018.10
2018-09-02T22:26:56.053Z,102021.61
2018-09-02T22:29:24.557Z,102024.66
2018-09-02T22:31:53.033Z,102015.27
2018-09-02T22:34:21.474Z,102013.51
2018-09-02T22:36:49.911Z,102015.28
2018-09-02T22:39:18.463Z,102010.83
2018-09-02T22:41:47.039Z,102004.59
2018-09-02T22:44:15.505Z,102001.89
2018-09-02T22:46:43.970Z,101998.31
2018-09-02T22:49:12.398Z,102001.39
2018-09-02T22:51:41.034Z,101998.23
2018-09-02T22:54:09.494Z,101997.31
2018-09-02T22:56:37.935Z,101996.42
2018-09-02T22:59:06.626Z,101990.17
2018-09-02T23:01:35.198Z,101993.26
2018-09-02T23:04:04.017Z,101992.34
2018-09-02T23:06:32.553Z,101990.98
2018-09-02T23:09:01.026Z,101985.64
2018-09-02T23:11:29.566Z,101990.95
2018-09-02T23:13:58.112Z,101986.93
2018-09-02T23:16:26.895Z,101984.70
2018-09-02T23:18:55.470Z,101987.81
2018-09-02T23:21:23.975Z,101981.12
2018-09-02T23:23:52.461Z,101978.91
2018-09-02T23:26:20.958Z,101980.23
2018-09-02T23:28:49.410Z,101980.23
2018-09-02T23:31:34.544Z,101976.23
2018-09-02T23:34:24.263Z,101970.89
2018-09-02T23:36:52.723Z,101970.40
2018-09-02T23:39:21.205Z,101971.28
2018-09-02T23:41:53.137Z,101959.70
2018-09-02T23:44:21.673Z,101961.05
2018-09-02T23:46:50.089Z,101956.15
2018-09-02T23:49:18.724Z,101954.38
2018-09-02T23:51:47.212Z,101953.03
2018-09-02T23:54:15.701Z,101953.02
2018-09-02T23:56:44.291Z,101948.13
2018-09-02T23:59:12.808Z,101942.78
